Time;durP1;ratioP1;P1;durP2;ratioP2;P2;SDS_P1;SDS_P2;PMS_P1;PMS_P2;Temp;Humidity;BMP_temperature;BMP_pressure;BME280_temperature;BME280_humidity;BME280_pressure;Samples;Min_cycle;Max_cycle;Signal;HPM_P1;HPM_P2
2021/12/28 00:00:18;;;;;;;54.20;25.00;;;8.40;99.90;;;;;;4954859;28;20301;-75
2021/12/28 00:02:47;;;;;;;59.03;26.23;;;8.40;99.90;;;;;;4956310;28;20216;-75
2021/12/28 00:05:15;;;;;;;58.73;24.60;;;8.40;99.90;;;;;;4951600;28;20246;-78
2021/12/28 00:07:42;;;;;;;59.30;26.17;;;8.40;99.90;;;;;;4955761;28;20236;-76
2021/12/28 00:10:12;;;;;;;68.27;27.13;;;8.50;99.90;;;;;;4957299;28;20219;-77
2021/12/28 00:12:39;;;;;;;60.83;26.07;;;8.50;99.90;;;;;;4953485;28;20212;-76
2021/12/28 00:18:01;;;;;;;55.57;25.20;;;8.50;99.90;;;;;;4961535;28;20233;-77
2021/12/28 00:20:39;;;;;;;65.93;25.83;;;8.50;99.90;;;;;;4949374;28;20220;-76
2021/12/28 00:23:09;;;;;;;62.40;26.80;;;8.50;99.90;;;;;;4937744;28;20211;-77
2021/12/28 00:25:36;;;;;;;62.77;25.57;;;8.50;99.90;;;;;;4952669;28;20226;-76
2021/12/28 00:28:06;;;;;;;71.93;27.27;;;8.60;99.90;;;;;;4956141;28;20287;-76
2021/12/28 00:30:33;;;;;;;64.57;26.60;;;8.50;99.90;;;;;;4957609;28;20204;-75
2021/12/28 00:32:59;;;;;;;66.60;27.33;;;8.60;99.90;;;;;;4953584;28;20658;-76
2021/12/28 00:35:35;;;;;;;77.50;29.13;;;8.60;99.90;;;;;;4953483;28;20773;-76
2021/12/28 00:38:05;;;;;;;71.60;26.67;;;8.60;99.90;;;;;;4958057;28;20204;-75
2021/12/28 00:40:32;;;;;;;74.37;28.47;;;8.50;99.90;;;;;;4951883;28;20221;-76
2021/12/28 00:42:59;;;;;;;75.17;29.23;;;8.60;99.90;;;;;;4951565;28;20240;-75
2021/12/28 00:45:27;;;;;;;72.83;28.77;;;8.60;99.90;;;;;;4955676;28;20237;-75
2021/12/28 00:47:55;;;;;;;67.77;27.37;;;8.60;99.90;;;;;;4953283;28;20203;-76
2021/12/28 00:50:23;;;;;;;62.23;26.33;;;8.60;99.90;;;;;;4954123;28;20672;-76
2021/12/28 00:52:50;;;;;;;70.93;28.23;;;8.60;99.90;;;;;;4953670;28;20249;-75
2021/12/28 00:55:18;;;;;;;67.87;27.13;;;8.60;99.90;;;;;;4936156;29;20669;-76
2021/12/28 00:57:46;;;;;;;68.70;27.00;;;8.60;99.90;;;;;;4956649;28;20700;-77
2021/12/28 01:00:16;;;;;;;70.20;27.80;;;8.60;99.90;;;;;;4953643;28;20561;-75
2021/12/28 01:02:43;;;;;;;58.83;25.87;;;8.60;99.90;;;;;;4950956;28;20287;-76
2021/12/28 01:05:11;;;;;;;60.63;25.77;;;8.60;99.90;;;;;;4953843;28;20240;-76
2021/12/28 01:07:38;;;;;;;64.50;27.43;;;8.60;99.90;;;;;;4954851;28;20202;-75
2021/12/28 01:10:08;;;;;;;72.67;27.60;;;8.60;99.90;;;;;;4955871;28;20305;-76
2021/12/28 01:12:35;;;;;;;75.60;27.33;;;8.60;99.90;;;;;;4950476;28;20213;-76
2021/12/28 01:15:08;;;;;;;62.30;26.83;;;8.60;99.90;;;;;;4951029;28;20259;-76
2021/12/28 01:17:36;;;;;;;63.10;26.87;;;8.60;99.90;;;;;;4956970;28;20315;-76
2021/12/28 01:20:06;;;;;;;67.33;26.10;;;8.60;99.90;;;;;;4959564;28;20311;-76
2021/12/28 01:22:33;;;;;;;64.60;27.33;;;8.60;99.90;;;;;;4950403;28;20205;-76
2021/12/28 01:25:00;;;;;;;70.07;26.73;;;8.60;99.90;;;;;;4957865;28;20230;-76
2021/12/28 01:27:27;;;;;;;67.77;25.07;;;8.60;99.90;;;;;;4957235;28;20213;-76
2021/12/28 01:29:54;;;;;;;63.50;24.87;;;8.60;99.90;;;;;;4957600;28;20281;-76
2021/12/28 01:32:20;;;;;;;59.07;24.47;;;8.60;99.90;;;;;;4956960;28;20308;-77
2021/12/28 01:34:47;;;;;;;68.37;25.20;;;8.60;99.90;;;;;;4939353;28;20228;-77
2021/12/28 01:37:14;;;;;;;59.50;25.13;;;8.70;99.90;;;;;;4950467;29;20217;-77
2021/12/28 01:39:41;;;;;;;59.00;24.53;;;8.70;99.90;;;;;;4955056;28;20322;-76
2021/12/28 01:42:08;;;;;;;54.07;23.77;;;8.60;99.90;;;;;;4948921;29;20748;-76
2021/12/28 01:44:35;;;;;;;59.37;24.43;;;8.70;99.90;;;;;;4957221;28;20228;-77
2021/12/28 01:47:06;;;;;;;57.50;23.87;;;8.50;99.90;;;;;;4961571;28;20218;-76
2021/12/28 01:49:33;;;;;;;58.30;23.70;;;8.50;99.90;;;;;;4954918;28;20331;-76
2021/12/28 01:51:59;;;;;;;54.80;23.10;;;8.40;99.90;;;;;;4960390;28;20291;-76
2021/12/28 01:54:26;;;;;;;49.80;21.87;;;8.30;99.90;;;;;;4953509;29;20216;-76
2021/12/28 01:56:53;;;;;;;53.63;22.33;;;8.30;99.90;;;;;;4954477;28;20208;-76
2021/12/28 01:59:21;;;;;;;56.93;23.07;;;8.20;99.90;;;;;;4953326;29;20208;-76
2021/12/28 02:01:50;;;;;;;51.47;23.23;;;8.20;99.90;;;;;;4955746;28;20240;-75
2021/12/28 02:04:24;;;;;;;54.10;22.77;;;8.10;99.90;;;;;;4958501;28;20288;-76
2021/12/28 02:06:52;;;;;;;56.80;21.53;;;8.10;99.90;;;;;;4960891;28;20270;-77
2021/12/28 02:09:19;;;;;;;67.97;23.93;;;8.00;99.90;;;;;;4952233;28;20216;-76
2021/12/28 02:11:47;;;;;;;60.03;23.57;;;8.00;99.90;;;;;;4938599;28;20213;-76
2021/12/28 02:14:14;;;;;;;65.03;23.83;;;8.00;99.90;;;;;;4956416;28;20731;-76
2021/12/28 02:16:43;;;;;;;61.57;23.67;;;7.90;99.90;;;;;;4959291;28;20664;-76
2021/12/28 02:19:12;;;;;;;67.50;24.70;;;7.90;99.90;;;;;;4959119;28;20241;-77
2021/12/28 02:21:39;;;;;;;54.97;21.90;;;8.00;99.90;;;;;;4955030;28;20283;-77
2021/12/28 02:24:08;;;;;;;54.20;22.47;;;7.90;99.90;;;;;;4954125;28;20224;-76
2021/12/28 02:26:35;;;;;;;65.17;23.63;;;8.00;99.90;;;;;;4955740;28;20276;-77
2021/12/28 02:29:04;;;;;;;60.13;23.97;;;8.00;99.90;;;;;;4941950;28;20258;-75
2021/12/28 02:31:31;;;;;;;64.33;22.63;;;8.00;99.90;;;;;;4959607;28;20299;-76
2021/12/28 02:34:02;;;;;;;51.03;22.00;;;8.00;99.90;;;;;;4960879;28;20205;-76
2021/12/28 02:36:31;;;;;;;61.03;22.17;;;8.00;99.90;;;;;;4941395;29;20205;-77
2021/12/28 02:38:58;;;;;;;50.37;21.53;;;8.00;99.90;;;;;;4955252;28;20216;-76
2021/12/28 02:41:25;;;;;;;52.13;20.63;;;8.00;99.90;;;;;;4938294;29;20299;-77
2021/12/28 02:44:02;;;;;;;49.40;20.10;;;8.00;99.90;;;;;;4953144;28;20293;-75
2021/12/28 02:46:29;;;;;;;51.93;20.80;;;8.00;99.90;;;;;;4960720;28;20234;-76
2021/12/28 02:48:56;;;;;;;49.33;20.40;;;8.00;99.90;;;;;;4940646;29;20212;-76
2021/12/28 02:51:23;;;;;;;52.87;19.83;;;8.00;99.90;;;;;;4937418;28;20687;-77
2021/12/28 02:53:50;;;;;;;51.27;20.57;;;8.00;99.90;;;;;;4961110;28;20240;-75
2021/12/28 02:56:19;;;;;;;41.90;19.27;;;8.00;99.90;;;;;;4956237;28;20696;-76
2021/12/28 02:58:49;;;;;;;50.27;19.20;;;8.00;99.90;;;;;;4960083;28;20202;-76
2021/12/28 03:01:24;;;;;;;47.90;19.17;;;8.00;99.90;;;;;;4961124;28;20212;-76
2021/12/28 03:03:55;;;;;;;48.37;18.93;;;7.90;99.90;;;;;;4952503;29;20302;-76
2021/12/28 03:06:23;;;;;;;59.60;19.83;;;7.90;99.90;;;;;;4960102;28;20336;-76
2021/12/28 03:08:53;;;;;;;47.47;20.17;;;7.90;99.90;;;;;;4957284;28;20650;-76
2021/12/28 03:11:24;;;;;;;48.33;19.97;;;7.90;99.90;;;;;;4955252;28;20235;-77
2021/12/28 03:14:00;;;;;;;49.67;18.87;;;7.90;99.90;;;;;;4958284;28;20210;-76
2021/12/28 03:16:29;;;;;;;50.53;19.17;;;7.90;99.90;;;;;;4953769;28;20209;-76
2021/12/28 03:18:57;;;;;;;52.73;20.37;;;7.80;99.90;;;;;;4956205;28;20283;-76
2021/12/28 03:21:27;;;;;;;46.80;18.93;;;7.80;99.90;;;;;;4937554;29;20215;-76
2021/12/28 03:23:54;;;;;;;52.97;19.73;;;7.80;99.90;;;;;;4960559;28;20209;-76
2021/12/28 03:26:21;;;;;;;49.63;20.17;;;7.70;99.90;;;;;;4951266;28;20746;-76
2021/12/28 03:28:48;;;;;;;46.43;18.23;;;7.70;99.90;;;;;;4951883;28;20310;-77
2021/12/28 03:31:19;;;;;;;43.13;17.47;;;7.70;99.90;;;;;;4955239;28;20199;-75
2021/12/28 03:33:49;;;;;;;41.03;17.73;;;7.70;99.90;;;;;;4955398;28;20198;-76
2021/12/28 03:36:17;;;;;;;39.43;17.47;;;7.60;99.90;;;;;;4953842;28;20216;-76
2021/12/28 03:38:45;;;;;;;44.80;18.97;;;7.60;99.90;;;;;;4954877;28;20211;-76
2021/12/28 03:41:13;;;;;;;40.60;16.87;;;7.50;99.90;;;;;;4952049;29;20220;-76
2021/12/28 03:43:42;;;;;;;47.67;16.73;;;7.50;99.90;;;;;;4955928;28;20633;-77
2021/12/28 03:46:10;;;;;;;42.67;17.33;;;7.40;99.90;;;;;;4956144;28;20293;-76
2021/12/28 03:48:39;;;;;;;43.53;16.73;;;7.40;99.90;;;;;;4960884;28;20212;-75
2021/12/28 03:51:06;;;;;;;42.57;18.13;;;7.40;99.90;;;;;;4952766;28;20226;-76
2021/12/28 03:53:33;;;;;;;41.20;17.00;;;7.40;99.90;;;;;;4960473;28;20202;-77
2021/12/28 03:56:02;;;;;;;39.20;17.80;;;7.40;99.90;;;;;;4954419;28;20302;-76
2021/12/28 03:58:29;;;;;;;45.47;17.10;;;7.40;99.90;;;;;;4956577;28;20250;-76
2021/12/28 04:01:01;;;;;;;44.53;16.63;;;7.40;99.90;;;;;;4935992;29;20290;-76
2021/12/28 04:03:28;;;;;;;47.63;16.93;;;7.40;99.90;;;;;;4939699;28;20220;-77
2021/12/28 04:05:55;;;;;;;42.90;17.53;;;7.40;99.90;;;;;;4954878;28;20672;-76
2021/12/28 04:08:24;;;;;;;37.37;15.70;;;7.40;99.90;;;;;;4953129;28;20216;-75
2021/12/28 04:10:54;;;;;;;38.73;16.93;;;7.40;99.90;;;;;;4953528;28;20213;-78
2021/12/28 04:13:23;;;;;;;35.33;15.13;;;7.40;99.90;;;;;;4954701;28;20629;-76
2021/12/28 04:15:50;;;;;;;42.17;15.53;;;7.40;99.90;;;;;;4951280;28;20603;-76
2021/12/28 04:18:18;;;;;;;42.87;16.37;;;7.30;99.90;;;;;;4958176;28;20237;-76
2021/12/28 04:20:45;;;;;;;37.93;15.20;;;7.30;99.90;;;;;;4959020;28;20376;-76
2021/12/28 04:23:12;;;;;;;39.53;15.70;;;7.30;99.90;;;;;;4953511;28;20775;-76
2021/12/28 04:25:39;;;;;;;32.23;15.23;;;7.20;99.90;;;;;;4956583;28;20290;-75
2021/12/28 04:28:06;;;;;;;37.30;15.23;;;7.20;99.90;;;;;;4952906;28;20688;-76
2021/12/28 04:30:33;;;;;;;40.53;15.13;;;7.20;99.90;;;;;;4953378;28;20659;-76
2021/12/28 04:32:59;;;;;;;40.40;16.10;;;7.20;99.90;;;;;;4943255;28;20272;-76
2021/12/28 04:35:26;;;;;;;36.20;15.13;;;7.20;99.90;;;;;;4955004;28;20221;-75
2021/12/28 04:37:53;;;;;;;38.23;16.30;;;7.10;99.90;;;;;;4961493;28;20228;-76
2021/12/28 04:40:20;;;;;;;43.93;16.23;;;7.10;99.90;;;;;;4951132;29;20305;-76
2021/12/28 04:42:47;;;;;;;41.43;16.60;;;7.10;99.90;;;;;;4938507;28;20236;-76
2021/12/28 04:45:16;;;;;;;37.80;16.60;;;7.10;99.90;;;;;;4953805;28;20256;-77
2021/12/28 04:47:43;;;;;;;47.70;17.33;;;7.10;99.90;;;;;;4951624;28;20209;-77
2021/12/28 04:50:11;;;;;;;46.17;17.33;;;7.10;99.90;;;;;;4959953;28;20234;-75
2021/12/28 04:52:40;;;;;;;51.33;16.73;;;7.20;99.90;;;;;;4958325;28;20202;-76
2021/12/28 04:55:10;;;;;;;37.00;15.47;;;7.20;99.90;;;;;;4952149;28;20240;-76
2021/12/28 04:57:38;;;;;;;41.33;17.03;;;7.20;99.90;;;;;;4957469;28;20244;-76
2021/12/28 05:00:08;;;;;;;44.57;16.93;;;7.20;99.90;;;;;;4953878;28;20246;-77
2021/12/28 05:02:35;;;;;;;35.20;16.53;;;7.20;99.90;;;;;;4955164;28;20211;-75
2021/12/28 05:05:03;;;;;;;38.17;16.73;;;7.20;99.90;;;;;;4951782;28;20764;-77
2021/12/28 05:07:30;;;;;;;43.30;16.27;;;7.30;99.90;;;;;;4936560;29;20294;-77
2021/12/28 05:09:58;;;;;;;33.23;14.70;;;7.30;99.90;;;;;;4951053;28;20215;-76
2021/12/28 05:12:27;;;;;;;37.97;16.10;;;7.30;99.90;;;;;;4952612;28;20348;-76
2021/12/28 05:14:56;;;;;;;40.70;16.83;;;7.30;99.90;;;;;;4950149;28;20327;-76
2021/12/28 05:17:23;;;;;;;39.23;16.00;;;7.40;99.90;;;;;;4953236;28;20271;-76
2021/12/28 05:19:50;;;;;;;45.27;16.17;;;7.40;99.90;;;;;;4953016;28;20251;-76
2021/12/28 05:22:16;;;;;;;39.73;16.37;;;7.40;99.90;;;;;;4951045;28;20240;-76
2021/12/28 05:24:43;;;;;;;46.50;16.07;;;7.40;99.90;;;;;;4949123;29;20297;-76
2021/12/28 05:27:10;;;;;;;36.63;15.50;;;7.50;99.90;;;;;;4953377;28;20645;-76
2021/12/28 05:29:37;;;;;;;41.13;16.23;;;7.50;99.90;;;;;;4951601;28;20295;-77
2021/12/28 05:32:05;;;;;;;38.53;15.40;;;7.50;99.90;;;;;;4952131;28;20238;-77
2021/12/28 05:34:32;;;;;;;38.23;15.13;;;7.50;99.90;;;;;;4953994;28;20662;-77
2021/12/28 05:36:59;;;;;;;41.23;15.37;;;7.60;99.90;;;;;;4952720;28;20252;-77
2021/12/28 05:39:26;;;;;;;41.50;15.47;;;7.60;99.90;;;;;;4958243;28;20247;-76
2021/12/28 05:41:52;;;;;;;34.97;15.27;;;7.60;99.90;;;;;;4950857;28;20231;-77
2021/12/28 05:44:19;;;;;;;40.57;15.67;;;7.60;99.90;;;;;;4937762;29;20204;-76
2021/12/28 05:46:46;;;;;;;46.23;15.63;;;7.60;99.90;;;;;;4964042;28;20759;-77
2021/12/28 05:49:13;;;;;;;37.90;15.90;;;7.60;99.90;;;;;;4952634;28;20593;-77
2021/12/28 05:51:40;;;;;;;36.40;16.10;;;7.60;99.90;;;;;;4952781;28;20258;-77
2021/12/28 05:54:07;;;;;;;37.83;14.50;;;7.70;99.90;;;;;;4957465;28;20210;-77
2021/12/28 05:56:34;;;;;;;40.87;14.80;;;7.70;99.90;;;;;;4950375;28;20209;-75
2021/12/28 05:59:01;;;;;;;38.93;13.83;;;7.70;99.90;;;;;;4926765;29;20216;-76
2021/12/28 06:01:27;;;;;;;34.60;14.40;;;7.70;99.90;;;;;;4958754;28;20211;-76
2021/12/28 06:03:54;;;;;;;33.77;13.73;;;7.70;99.90;;;;;;4956717;28;20328;-75
2021/12/28 06:06:21;;;;;;;43.53;14.33;;;7.70;99.90;;;;;;4959962;28;21217;-77
2021/12/28 06:08:48;;;;;;;39.97;14.70;;;7.70;99.90;;;;;;4952174;28;20220;-76
2021/12/28 06:11:16;;;;;;;34.13;14.07;;;7.70;99.90;;;;;;4954719;28;20196;-76
2021/12/28 06:13:43;;;;;;;46.80;15.40;;;7.70;99.90;;;;;;4920734;28;20223;-76
2021/12/28 06:16:10;;;;;;;36.90;14.13;;;7.70;99.90;;;;;;4952604;28;20236;-76
2021/12/28 06:18:38;;;;;;;34.97;14.13;;;7.70;99.90;;;;;;4956080;28;20316;-77
2021/12/28 06:21:05;;;;;;;37.00;14.27;;;7.70;99.90;;;;;;4950247;28;20221;-76
2021/12/28 06:23:32;;;;;;;29.93;13.47;;;7.70;99.90;;;;;;4950312;28;20351;-75
2021/12/28 06:25:58;;;;;;;37.00;14.77;;;7.70;99.90;;;;;;4955948;28;20234;-76
2021/12/28 06:28:25;;;;;;;44.53;15.07;;;7.70;99.90;;;;;;4957996;28;20212;-78
2021/12/28 06:30:53;;;;;;;38.20;14.90;;;7.70;99.90;;;;;;4961739;28;20687;-77
2021/12/28 06:33:24;;;;;;;39.03;14.90;;;7.70;99.90;;;;;;4946381;28;20209;-76
2021/12/28 06:35:54;;;;;;;31.33;12.93;;;7.70;99.90;;;;;;4957577;28;20227;-76
2021/12/28 06:38:22;;;;;;;33.23;14.17;;;7.70;99.90;;;;;;4954288;28;20296;-75
2021/12/28 06:40:49;;;;;;;38.40;13.40;;;7.80;99.90;;;;;;4954494;28;20220;-76
2021/12/28 06:43:16;;;;;;;33.37;12.47;;;7.80;99.90;;;;;;4953571;28;20316;-76
2021/12/28 06:45:43;;;;;;;38.53;14.47;;;7.80;99.90;;;;;;4954168;28;20239;-77
2021/12/28 06:48:10;;;;;;;32.17;12.63;;;7.80;99.90;;;;;;4957410;28;20219;-76
2021/12/28 06:50:36;;;;;;;38.67;13.73;;;7.80;99.90;;;;;;4951052;29;20335;-76
2021/12/28 06:53:06;;;;;;;38.77;14.07;;;7.90;99.90;;;;;;4954608;28;20278;-76
2021/12/28 06:55:33;;;;;;;34.57;13.57;;;7.90;99.90;;;;;;4957616;28;20559;-76
2021/12/28 06:58:00;;;;;;;32.63;13.40;;;7.90;99.90;;;;;;4955685;28;20204;-76
2021/12/28 07:00:26;;;;;;;40.07;13.83;;;7.90;99.90;;;;;;4961851;28;20260;-75
2021/12/28 07:02:53;;;;;;;39.50;12.70;;;7.90;99.90;;;;;;4952760;28;20677;-76
2021/12/28 07:05:20;;;;;;;30.50;12.63;;;8.00;99.90;;;;;;4959242;28;20295;-76
2021/12/28 07:07:47;;;;;;;36.80;12.43;;;7.90;99.90;;;;;;4923983;28;20224;-75
2021/12/28 07:10:14;;;;;;;38.27;12.53;;;7.90;99.90;;;;;;4958906;28;20300;-76
2021/12/28 07:12:41;;;;;;;30.57;11.67;;;8.00;99.90;;;;;;4960696;28;20233;-76
2021/12/28 07:15:08;;;;;;;37.07;12.23;;;8.00;99.90;;;;;;4958549;28;20653;-77
2021/12/28 07:17:35;;;;;;;38.50;12.27;;;8.00;99.90;;;;;;4955403;28;20251;-75
2021/12/28 07:20:08;;;;;;;38.03;11.83;;;8.00;99.90;;;;;;4938546;29;20224;-76
2021/12/28 07:22:37;;;;;;;27.63;11.40;;;8.00;99.90;;;;;;4958257;28;20220;-77
2021/12/28 07:25:05;;;;;;;33.70;11.47;;;8.10;99.90;;;;;;4938209;29;20583;-76
2021/12/28 07:27:32;;;;;;;36.43;11.23;;;8.10;99.90;;;;;;4958809;28;20330;-76
2021/12/28 07:29:59;;;;;;;26.47;9.93;;;8.10;99.90;;;;;;4962397;28;20215;-76
2021/12/28 07:32:25;;;;;;;36.53;10.93;;;8.10;99.90;;;;;;4943962;28;20216;-76
2021/12/28 07:34:52;;;;;;;32.97;11.23;;;8.10;99.90;;;;;;4960798;28;20231;-76
2021/12/28 07:37:19;;;;;;;34.40;11.07;;;8.10;99.90;;;;;;4954615;28;20234;-76
2021/12/28 07:39:50;;;;;;;32.03;11.23;;;8.10;99.90;;;;;;4959599;28;20247;-76
2021/12/28 07:42:17;;;;;;;41.17;11.40;;;8.10;99.90;;;;;;4954247;28;20585;-76
2021/12/28 07:44:44;;;;;;;36.67;11.33;;;8.10;99.90;;;;;;4962267;28;20218;-77
2021/12/28 07:47:10;;;;;;;38.97;12.47;;;8.10;99.90;;;;;;4962050;28;20322;-76
2021/12/28 07:49:37;;;;;;;35.67;12.50;;;8.10;99.90;;;;;;4962004;28;20287;-77
2021/12/28 07:52:05;;;;;;;46.50;12.70;;;8.20;99.90;;;;;;4960714;28;20651;-78
2021/12/28 07:54:32;;;;;;;33.47;12.20;;;8.20;99.90;;;;;;4954274;28;20295;-78
2021/12/28 07:56:58;;;;;;;37.63;12.07;;;8.30;99.90;;;;;;4955862;28;20214;-76
2021/12/28 07:59:26;;;;;;;29.00;11.53;;;8.30;99.90;;;;;;4959539;28;20287;-77
2021/12/28 08:01:53;;;;;;;36.00;12.57;;;8.50;99.90;;;;;;4959514;28;20220;-77
2021/12/28 08:04:20;;;;;;;33.93;12.60;;;8.40;99.90;;;;;;4960288;28;20226;-76
2021/12/28 08:06:47;;;;;;;38.33;12.77;;;8.40;99.90;;;;;;4955994;28;20247;-76
2021/12/28 08:09:14;;;;;;;39.93;12.87;;;8.40;99.90;;;;;;4960093;28;20221;-76
2021/12/28 08:11:42;;;;;;;33.73;12.90;;;8.50;99.90;;;;;;4962560;28;21001;-76
2021/12/28 08:14:09;;;;;;;32.20;12.23;;;8.50;99.90;;;;;;4965341;28;20615;-78
2021/12/28 08:16:36;;;;;;;42.30;12.47;;;8.50;99.90;;;;;;4969054;28;20238;-77
2021/12/28 08:19:08;;;;;;;36.27;11.50;;;8.50;99.90;;;;;;4974843;28;20240;-75
2021/12/28 08:21:44;;;;;;;32.87;11.40;;;8.50;99.90;;;;;;4968308;28;20216;-76
2021/12/28 08:24:10;;;;;;;33.50;11.27;;;8.50;99.90;;;;;;4958462;28;20282;-75
2021/12/28 08:26:37;;;;;;;32.70;11.30;;;8.60;99.90;;;;;;4955262;28;20277;-76
2021/12/28 08:29:04;;;;;;;29.80;11.23;;;8.60;99.90;;;;;;4957109;28;20575;-76
2021/12/28 08:31:32;;;;;;;35.27;10.90;;;8.60;99.90;;;;;;4957869;28;20300;-75
2021/12/28 08:33:59;;;;;;;29.13;11.13;;;8.60;99.90;;;;;;4953471;28;20235;-76
2021/12/28 08:36:26;;;;;;;31.30;10.97;;;8.60;99.90;;;;;;4938958;28;20252;-75
2021/12/28 08:38:55;;;;;;;31.67;11.67;;;8.60;99.90;;;;;;4949919;28;20696;-75
2021/12/28 08:41:23;;;;;;;27.50;10.57;;;8.60;99.90;;;;;;4959132;28;20216;-75
2021/12/28 08:43:50;;;;;;;30.33;10.17;;;8.60;99.90;;;;;;4956368;28;20222;-76
2021/12/28 08:46:17;;;;;;;31.00;9.50;;;8.70;99.90;;;;;;4957153;28;20232;-75
2021/12/28 08:48:44;;;;;;;31.70;10.13;;;8.70;99.90;;;;;;4954414;28;20317;-76
2021/12/28 08:51:11;;;;;;;26.90;9.40;;;8.70;99.90;;;;;;4949820;29;20226;-75
2021/12/28 08:53:38;;;;;;;30.90;9.10;;;8.70;99.90;;;;;;4940689;28;20299;-76
2021/12/28 08:56:05;;;;;;;29.03;9.23;;;8.70;99.90;;;;;;4954530;28;20725;-75
2021/12/28 08:58:32;;;;;;;25.33;9.77;;;8.70;99.90;;;;;;4955666;28;20309;-75
2021/12/28 09:01:00;;;;;;;25.03;9.10;;;8.70;99.90;;;;;;4940291;29;20735;-76
2021/12/28 09:03:27;;;;;;;25.00;9.03;;;8.80;99.90;;;;;;4943680;29;20213;-75
2021/12/28 09:05:54;;;;;;;27.60;9.53;;;8.80;99.90;;;;;;4956967;28;20232;-75
2021/12/28 09:08:21;;;;;;;25.07;10.03;;;8.80;99.90;;;;;;4956926;28;20252;-75
2021/12/28 09:10:48;;;;;;;24.87;10.07;;;8.80;99.90;;;;;;4954815;28;20353;-76
2021/12/28 09:13:17;;;;;;;26.47;10.47;;;9.00;99.90;;;;;;4961909;28;20278;-75
2021/12/28 09:15:45;;;;;;;24.67;9.13;;;9.00;99.90;;;;;;4939670;29;20299;-74
2021/12/28 09:18:13;;;;;;;28.43;10.93;;;9.00;99.90;;;;;;4965428;28;20341;-76
2021/12/28 09:20:40;;;;;;;32.03;11.33;;;9.00;99.90;;;;;;4956167;29;20313;-75
2021/12/28 09:23:08;;;;;;;24.50;9.97;;;;;;;;;;4952914;28;20219;-76
2021/12/28 09:25:36;;;;;;;26.47;10.17;;;9.00;99.90;;;;;;4951914;28;20250;-76
2021/12/28 09:28:04;;;;;;;26.90;11.10;;;9.00;99.90;;;;;;4965506;28;20234;-75
2021/12/28 09:30:32;;;;;;;23.00;10.63;;;9.00;99.90;;;;;;4940994;28;20220;-75
2021/12/28 09:32:59;;;;;;;28.17;10.57;;;9.00;99.90;;;;;;4960469;28;20268;-75
2021/12/28 09:35:26;;;;;;;21.67;9.93;;;9.10;99.90;;;;;;4955550;28;20306;-75
2021/12/28 09:37:53;;;;;;;20.73;9.93;;;9.10;99.90;;;;;;4955368;28;20276;-75
2021/12/28 09:40:20;;;;;;;26.60;10.87;;;9.20;99.90;;;;;;4957807;28;20211;-75
2021/12/28 09:42:47;;;;;;;18.97;9.67;;;9.20;99.90;;;;;;4954949;28;20837;-75
2021/12/28 09:45:14;;;;;;;26.67;10.73;;;9.20;99.90;;;;;;4937335;28;20218;-75
2021/12/28 09:47:42;;;;;;;22.93;9.87;;;9.20;99.90;;;;;;4955336;28;20246;-75
2021/12/28 09:50:14;;;;;;;18.33;9.23;;;9.30;99.90;;;;;;4949406;28;20278;-75
2021/12/28 09:52:42;;;;;;;17.83;9.80;;;9.30;99.90;;;;;;4918239;28;20306;-76
2021/12/28 09:55:13;;;;;;;21.73;9.13;;;9.30;99.90;;;;;;4950600;29;20347;-75
2021/12/28 09:57:41;;;;;;;17.37;8.57;;;9.40;99.90;;;;;;4951471;28;20302;-76
2021/12/28 10:00:09;;;;;;;15.97;8.27;;;9.40;99.90;;;;;;4958291;28;20247;-75
2021/12/28 10:02:36;;;;;;;14.90;8.27;;;9.40;99.90;;;;;;4952140;28;20202;-75
2021/12/28 10:05:09;;;;;;;18.57;8.20;;;9.40;99.90;;;;;;4951819;28;20255;-76
2021/12/28 10:07:46;;;;;;;19.27;7.63;;;9.50;99.90;;;;;;4943228;29;20273;-75
2021/12/28 10:10:13;;;;;;;15.00;7.80;;;9.50;99.90;;;;;;4949949;28;20218;-76
2021/12/28 10:12:49;;;;;;;13.77;7.63;;;9.50;99.90;;;;;;4973744;28;20223;-75
2021/12/28 10:15:19;;;;;;;13.33;7.10;;;9.50;99.90;;;;;;4956514;28;20626;-75
2021/12/28 10:17:50;;;;;;;13.43;7.00;;;9.60;99.90;;;;;;4956376;28;20236;-75
2021/12/28 10:20:20;;;;;;;14.07;6.23;;;9.60;99.90;;;;;;4939066;28;20224;-75
2021/12/28 10:22:53;;;;;;;12.33;6.60;;;9.60;99.90;;;;;;4954067;29;20287;-75
2021/12/28 10:25:23;;;;;;;9.40;6.10;;;9.60;99.90;;;;;;4956345;28;20718;-77
2021/12/28 10:27:53;;;;;;;8.13;5.07;;;9.70;99.90;;;;;;4953631;29;20279;-75
2021/12/28 10:30:24;;;;;;;9.37;6.00;;;9.70;99.90;;;;;;4959804;28;20633;-75
2021/12/28 10:32:55;;;;;;;9.50;4.70;;;9.70;99.90;;;;;;4958018;28;20222;-75
2021/12/28 10:35:28;;;;;;;8.97;5.67;;;9.70;99.90;;;;;;4954987;28;20220;-75
2021/12/28 10:37:59;;;;;;;9.80;5.20;;;9.80;99.90;;;;;;4959394;28;20216;-75
2021/12/28 10:40:32;;;;;;;8.40;4.57;;;9.80;99.90;;;;;;4953395;29;20661;-76
2021/12/28 10:43:15;;;;;;;9.30;4.90;;;9.80;99.90;;;;;;4964317;28;20776;-75
2021/12/28 10:45:51;;;;;;;9.63;5.20;;;9.80;99.90;;;;;;4959287;28;20247;-75
2021/12/28 10:48:26;;;;;;;8.73;5.40;;;9.80;99.90;;;;;;4964090;28;20237;-75
2021/12/28 10:51:00;;;;;;;10.23;6.40;;;9.80;99.90;;;;;;4958571;28;20231;-76
2021/12/28 10:53:36;;;;;;;11.97;6.03;;;9.80;99.90;;;;;;4964518;28;20250;-76
2021/12/28 10:56:06;;;;;;;11.17;6.20;;;9.80;99.90;;;;;;4952134;29;20226;-76
2021/12/28 10:58:44;;;;;;;11.97;6.40;;;9.80;99.90;;;;;;4960494;28;20586;-74
2021/12/28 11:01:25;;;;;;;12.63;6.63;;;9.90;99.90;;;;;;4963534;28;20295;-78
2021/12/28 11:03:58;;;;;;;12.57;7.30;;;9.90;99.90;;;;;;4961035;28;20207;-75
2021/12/28 11:06:27;;;;;;;12.60;7.60;;;9.90;99.90;;;;;;4957469;28;20213;-75
2021/12/28 11:08:56;;;;;;;13.70;7.60;;;9.90;99.90;;;;;;4964645;28;20211;-75
2021/12/28 11:11:27;;;;;;;13.67;8.00;;;9.90;99.90;;;;;;4959801;28;20211;-77
2021/12/28 11:14:00;;;;;;;13.13;7.37;;;10.00;99.90;;;;;;4958082;28;20212;-76
2021/12/28 11:16:28;;;;;;;16.17;7.80;;;10.00;99.90;;;;;;4954405;28;20221;-75
2021/12/28 11:18:58;;;;;;;12.40;7.43;;;10.00;99.90;;;;;;4951179;28;20773;-76
2021/12/28 11:21:39;;;;;;;13.57;7.30;;;10.10;99.90;;;;;;4951848;28;20236;-75
2021/12/28 11:24:15;;;;;;;12.80;7.23;;;10.10;99.90;;;;;;4940983;28;20744;-74
2021/12/28 11:26:47;;;;;;;12.83;7.37;;;10.10;99.90;;;;;;4953600;28;20328;-76
2021/12/28 11:29:22;;;;;;;12.13;6.77;;;10.10;99.90;;;;;;4957378;28;20628;-76
2021/12/28 11:32:12;;;;;;;12.87;7.60;;;10.20;99.90;;;;;;4957770;28;20212;-75
2021/12/28 11:34:40;;;;;;;11.20;6.73;;;10.20;99.90;;;;;;4952935;29;20318;-75
2021/12/28 11:37:15;;;;;;;13.33;6.60;;;10.30;99.90;;;;;;4954184;28;20216;-76
2021/12/28 11:39:51;;;;;;;10.33;6.60;;;10.30;99.90;;;;;;4957135;28;20212;-75
2021/12/28 11:42:20;;;;;;;9.93;6.73;;;10.30;99.90;;;;;;4952874;28;20290;-74
2021/12/28 11:44:49;;;;;;;10.93;6.60;;;10.20;99.90;;;;;;4956302;28;20204;-74
2021/12/28 11:47:16;;;;;;;9.93;6.37;;;10.30;99.90;;;;;;4955155;28;20330;-75
2021/12/28 11:49:45;;;;;;;9.57;6.37;;;10.40;99.90;;;;;;4951589;29;20628;-75
2021/12/28 11:52:16;;;;;;;9.70;6.30;;;10.30;99.90;;;;;;4956163;28;20215;-77
2021/12/28 11:54:46;;;;;;;10.50;5.80;;;10.30;99.90;;;;;;4950979;28;20262;-75
2021/12/28 11:57:23;;;;;;;10.73;5.97;;;10.30;99.90;;;;;;4934380;29;20208;-76
2021/12/28 11:59:55;;;;;;;11.43;6.80;;;10.30;99.90;;;;;;4966895;28;20216;-75
2021/12/28 12:02:47;;;;;;;12.53;6.87;;;10.20;99.90;;;;;;4942776;29;20200;-76
2021/12/28 12:05:23;;;;;;;10.57;6.50;;;10.30;99.90;;;;;;4957765;28;20642;-75
2021/12/28 12:08:10;;;;;;;11.20;6.87;;;10.30;99.90;;;;;;4952029;29;20291;-76
2021/12/28 12:10:41;;;;;;;12.10;7.27;;;10.30;99.90;;;;;;4957339;28;20216;-75
2021/12/28 12:13:18;;;;;;;12.00;7.00;;;10.30;99.90;;;;;;4953790;28;20668;-77
2021/12/28 12:15:49;;;;;;;12.10;7.23;;;10.30;99.90;;;;;;4957396;28;20216;-74
2021/12/28 12:18:19;;;;;;;14.73;7.67;;;10.30;99.90;;;;;;4957995;28;20236;-74
2021/12/28 12:20:56;;;;;;;15.03;7.50;;;10.30;99.90;;;;;;4968974;28;20576;-75
2021/12/28 12:23:30;;;;;;;12.20;7.47;;;10.30;99.90;;;;;;4942491;28;20212;-75
2021/12/28 12:26:00;;;;;;;14.33;7.83;;;10.30;99.90;;;;;;4957358;28;20270;-76
2021/12/28 12:28:41;;;;;;;14.60;8.00;;;10.30;99.90;;;;;;4941674;28;20815;-74
2021/12/28 12:31:18;;;;;;;12.47;7.07;;;10.40;99.90;;;;;;4955913;28;20216;-75
2021/12/28 12:33:45;;;;;;;12.43;7.37;;;10.30;99.90;;;;;;4959777;28;20211;-75
2021/12/28 12:36:32;;;;;;;11.67;6.90;;;10.30;99.90;;;;;;4955015;29;20342;-74
2021/12/28 12:39:02;;;;;;;12.27;7.00;;;10.40;99.90;;;;;;4955237;28;20213;-74
2021/12/28 12:41:51;;;;;;;13.30;6.87;;;10.40;99.90;;;;;;4951600;28;20573;-74
2021/12/28 12:44:21;;;;;;;13.93;7.10;;;10.40;99.90;;;;;;4943606;28;20618;-75
2021/12/28 12:46:51;;;;;;;12.87;6.27;;;10.40;99.90;;;;;;4958229;28;20216;-74
2021/12/28 12:49:27;;;;;;;12.67;6.30;;;10.40;99.90;;;;;;4947784;28;20227;-74